createdAt,value
2019-05-14T00:02:02.519Z,10.90
2019-05-14T00:04:31.578Z,10.90
2019-05-14T00:07:01.876Z,10.90
2019-05-14T00:09:32.342Z,11.00
2019-05-14T00:12:02.977Z,11.00
2019-05-14T00:14:39.818Z,10.90
2019-05-14T00:17:05.244Z,10.90
2019-05-14T00:19:35.628Z,10.60
2019-05-14T00:22:05.818Z,10.70
2019-05-14T00:24:36.060Z,10.60
2019-05-14T00:27:06.348Z,10.60
2019-05-14T00:29:36.663Z,10.50
2019-05-14T00:32:06.997Z,10.40
2019-05-14T00:34:37.200Z,10.10
2019-05-14T00:37:07.414Z,10.20
2019-05-14T00:39:37.685Z,10.50
2019-05-14T00:42:07.905Z,10.70
2019-05-14T00:44:51.664Z,10.60
2019-05-14T00:47:11.179Z,10.50
2019-05-14T00:49:42.485Z,10.70
2019-05-14T00:52:12.954Z,10.70
2019-05-14T00:54:43.159Z,10.40
2019-05-14T00:57:13.368Z,10.30
2019-05-14T00:59:43.573Z,10.40
2019-05-14T01:02:13.857Z,10.00
2019-05-14T01:04:44.147Z,10.20
2019-05-14T01:07:14.340Z,10.00
2019-05-14T01:09:44.570Z,10.00
2019-05-14T01:12:14.736Z,10.00
2019-05-14T01:14:45.068Z,10.00
2019-05-14T01:17:15.256Z,9.90
2019-05-14T01:19:45.529Z,10.20
2019-05-14T01:22:15.776Z,10.30
2019-05-14T01:24:46.074Z,10.10
2019-05-14T01:27:16.320Z,9.90
2019-05-14T01:29:46.561Z,9.90
2019-05-14T01:32:16.768Z,9.80
2019-05-14T01:34:46.968Z,10.00
2019-05-14T01:37:17.189Z,9.90
2019-05-14T01:39:47.414Z,9.90
2019-05-14T01:42:17.626Z,9.70
2019-05-14T01:44:47.840Z,9.60
2019-05-14T01:47:18.028Z,9.80
2019-05-14T01:49:48.280Z,10.10
2019-05-14T01:52:18.457Z,10.20
2019-05-14T01:54:48.702Z,10.20
2019-05-14T01:57:18.987Z,10.20
2019-05-14T01:59:51.464Z,10.20
2019-05-14T02:02:22.055Z,10.20
2019-05-14T02:04:52.530Z,10.00
2019-05-14T02:07:22.715Z,9.90
2019-05-14T02:09:52.969Z,10.00
2019-05-14T02:12:23.160Z,10.00
2019-05-14T02:14:53.340Z,9.90
2019-05-14T02:17:23.615Z,9.90
2019-05-14T02:19:53.780Z,10.00
2019-05-14T02:22:24.055Z,10.00
2019-05-14T02:24:54.229Z,10.00
2019-05-14T02:27:24.436Z,10.10
2019-05-14T02:29:54.673Z,10.10
2019-05-14T02:32:24.959Z,10.00
2019-05-14T02:34:55.156Z,10.00
2019-05-14T02:37:25.434Z,10.00
2019-05-14T02:39:55.590Z,9.80
2019-05-14T02:42:28.698Z,9.90
2019-05-14T02:44:59.256Z,9.90
2019-05-14T02:47:29.942Z,10.00
2019-05-14T02:50:00.269Z,9.80
2019-05-14T02:52:30.567Z,9.80
2019-05-14T02:55:00.816Z,9.70
2019-05-14T02:57:31.033Z,9.70
2019-05-14T03:00:01.314Z,9.80
2019-05-14T03:02:31.598Z,9.70
2019-05-14T03:05:01.933Z,9.70
2019-05-14T03:07:32.113Z,9.70
2019-05-14T03:10:02.314Z,9.80
2019-05-14T03:12:32.637Z,9.70
2019-05-14T03:15:02.793Z,9.70
2019-05-14T03:17:33.074Z,9.90
2019-05-14T03:20:03.414Z,9.80
2019-05-14T03:22:46.650Z,9.80
2019-05-14T03:25:05.665Z,9.90
2019-05-14T03:27:35.969Z,10.00
2019-05-14T03:30:11.586Z,9.40
2019-05-14T03:32:42.373Z,9.60
2019-05-14T03:35:13.350Z,9.60
2019-05-14T03:37:42.898Z,9.40
2019-05-14T03:40:13.230Z,9.40
2019-05-14T03:42:43.588Z,9.60
2019-05-14T03:45:14.089Z,9.40
2019-05-14T03:47:44.346Z,9.50
2019-05-14T03:50:14.686Z,9.50
2019-05-14T03:52:44.862Z,9.50
2019-05-14T03:55:15.025Z,9.40
2019-05-14T03:57:45.307Z,9.50
2019-05-14T04:00:18.734Z,9.40
2019-05-14T04:02:49.086Z,9.50
2019-05-14T04:05:22.651Z,9.20
2019-05-14T04:07:52.592Z,9.40
2019-05-14T04:10:23.028Z,9.40
2019-05-14T04:12:54.051Z,9.40
2019-05-14T04:15:29.880Z,9.20
2019-05-14T04:17:59.821Z,9.30
2019-05-14T04:20:32.402Z,9.30
2019-05-14T04:23:09.080Z,9.40
2019-05-14T04:25:40.390Z,9.50
2019-05-14T04:28:14.241Z,9.50
2019-05-14T04:30:49.303Z,9.30
2019-05-14T04:33:22.020Z,9.00
2019-05-14T04:35:52.971Z,8.90
2019-05-14T04:38:23.248Z,8.90
2019-05-14T04:40:53.537Z,9.10
2019-05-14T04:43:23.785Z,9.10
2019-05-14T04:45:54.072Z,9.30
2019-05-14T04:48:33.876Z,9.30
2019-05-14T04:51:00.032Z,9.40
2019-05-14T04:53:30.936Z,9.50
2019-05-14T04:56:00.537Z,9.50
2019-05-14T04:58:30.768Z,9.60
2019-05-14T05:01:01.142Z,9.40
2019-05-14T05:03:31.924Z,9.40
2019-05-14T05:06:14.635Z,9.50
2019-05-14T05:08:49.399Z,9.00
2019-05-14T05:11:21.082Z,8.90
2019-05-14T05:13:49.945Z,9.10
2019-05-14T05:16:20.106Z,9.30
2019-05-14T05:18:50.293Z,9.00
2019-05-14T05:21:20.565Z,8.80
2019-05-14T05:23:50.770Z,9.00
2019-05-14T05:26:21.025Z,9.20
2019-05-14T05:29:02.937Z,9.20
2019-05-14T05:31:23.164Z,9.50
2019-05-14T05:33:53.485Z,9.40
2019-05-14T05:36:23.720Z,9.60
2019-05-14T05:38:53.999Z,9.80
2019-05-14T05:41:24.196Z,10.00
2019-05-14T05:43:54.400Z,10.00
2019-05-14T05:46:24.566Z,10.00
2019-05-14T05:48:54.834Z,10.00
2019-05-14T05:51:25.074Z,10.20
2019-05-14T05:53:55.308Z,10.30
2019-05-14T05:56:25.495Z,10.40
2019-05-14T05:58:55.694Z,10.40
2019-05-14T06:01:41.200Z,10.40
2019-05-14T06:03:58.421Z,10.50
2019-05-14T06:06:28.690Z,10.60
2019-05-14T06:08:58.897Z,10.60
2019-05-14T06:11:29.219Z,10.60
2019-05-14T06:13:59.422Z,10.60
2019-05-14T06:16:29.712Z,10.50
2019-05-14T06:18:59.923Z,10.70
2019-05-14T06:21:30.229Z,11.10
2019-05-14T06:24:02.859Z,11.50
2019-05-14T06:26:32.473Z,12.00
2019-05-14T06:29:02.712Z,12.90
2019-05-14T06:31:32.993Z,13.50
2019-05-14T06:34:03.273Z,14.20
2019-05-14T06:36:33.570Z,14.80
2019-05-14T06:39:05.613Z,15.10
2019-05-14T06:41:39.877Z,15.20
2019-05-14T06:44:09.219Z,15.20
2019-05-14T06:46:39.645Z,15.40
2019-05-14T06:49:09.941Z,15.70
2019-05-14T06:51:40.185Z,15.80
2019-05-14T06:54:10.403Z,15.80
2019-05-14T06:56:40.641Z,15.50
2019-05-14T06:59:10.925Z,15.60
2019-05-14T07:01:41.188Z,15.70
2019-05-14T07:04:11.469Z,15.90
2019-05-14T07:06:41.650Z,15.90
2019-05-14T07:09:11.866Z,15.80
2019-05-14T07:11:42.133Z,16.10
2019-05-14T07:14:12.340Z,16.20
2019-05-14T07:16:42.633Z,16.20
2019-05-14T07:19:15.700Z,16.50
2019-05-14T07:21:44.750Z,16.70
2019-05-14T07:24:14.944Z,17.10
2019-05-14T07:26:45.154Z,16.90
2019-05-14T07:29:15.337Z,17.00
2019-05-14T07:31:45.602Z,16.90
2019-05-14T07:34:15.804Z,16.90
2019-05-14T07:36:46.097Z,17.20
2019-05-14T07:39:18.555Z,17.50
2019-05-14T07:41:48.585Z,17.80
2019-05-14T07:44:18.868Z,18.10
2019-05-14T07:46:51.800Z,18.30
2019-05-14T07:49:21.955Z,17.90
2019-05-14T07:51:52.159Z,17.90
2019-05-14T07:54:22.672Z,18.00
2019-05-14T07:56:53.168Z,17.80
2019-05-14T07:59:23.554Z,17.70
2019-05-14T08:01:54.214Z,17.80
2019-05-14T08:04:24.480Z,17.90
2019-05-14T08:06:54.671Z,18.20
2019-05-14T08:09:24.954Z,18.20
2019-05-14T08:11:55.259Z,18.40
2019-05-14T08:14:25.471Z,18.70
2019-05-14T08:16:55.657Z,18.90
2019-05-14T08:19:27.883Z,18.80
2019-05-14T08:21:58.701Z,19.00
2019-05-14T08:24:30.052Z,18.70
2019-05-14T08:27:00.526Z,18.60
2019-05-14T08:29:30.748Z,18.80
2019-05-14T08:32:01.061Z,18.80
2019-05-14T08:34:32.391Z,19.10
2019-05-14T08:37:03.989Z,19.10
2019-05-14T08:39:34.545Z,18.30
2019-05-14T08:42:04.769Z,17.80
2019-05-14T08:44:35.007Z,17.20
2019-05-14T08:47:05.247Z,17.20
2019-05-14T08:49:41.909Z,17.20
2019-05-14T08:52:08.777Z,17.20
2019-05-14T08:54:39.357Z,17.10
2019-05-14T08:57:10.050Z,17.00
2019-05-14T08:59:40.426Z,16.60
2019-05-14T09:02:11.012Z,16.20
2019-05-14T09:04:43.333Z,15.60
2019-05-14T09:07:13.370Z,15.10
2019-05-14T09:09:43.576Z,15.20
2019-05-14T09:12:13.845Z,14.90
2019-05-14T09:14:44.137Z,14.60
2019-05-14T09:17:14.970Z,15.00
2019-05-14T09:20:00.944Z,15.10
2019-05-14T09:22:18.495Z,15.10
2019-05-14T09:24:49.341Z,15.20
2019-05-14T09:27:19.646Z,15.20
2019-05-14T09:29:49.934Z,15.20
2019-05-14T09:32:20.272Z,15.60
2019-05-14T09:34:50.497Z,15.90
2019-05-14T09:37:20.772Z,16.00
2019-05-14T09:39:50.994Z,16.10
2019-05-14T09:42:21.306Z,15.90
2019-05-14T09:44:51.515Z,15.80
2019-05-14T09:47:21.882Z,15.80
2019-05-14T09:49:52.193Z,15.70
2019-05-14T09:52:22.559Z,15.60
2019-05-14T09:54:52.743Z,15.60
2019-05-14T09:57:23.002Z,15.60
2019-05-14T09:59:53.218Z,15.90
2019-05-14T10:02:23.410Z,16.40
2019-05-14T10:04:53.695Z,16.30
2019-05-14T10:07:24.001Z,16.10
2019-05-14T10:09:54.210Z,16.30
2019-05-14T10:12:24.491Z,16.20
2019-05-14T10:14:54.765Z,16.20
2019-05-14T10:17:24.967Z,16.20
2019-05-14T10:19:55.216Z,16.10
2019-05-14T10:22:25.486Z,16.30
2019-05-14T10:24:58.139Z,16.10
2019-05-14T10:27:28.432Z,16.10
2019-05-14T10:29:58.955Z,15.90
2019-05-14T10:32:29.571Z,15.90
2019-05-14T10:34:59.980Z,16.10
2019-05-14T10:37:30.289Z,16.10
2019-05-14T10:40:00.573Z,16.00
2019-05-14T10:42:30.878Z,15.80
2019-05-14T10:45:01.171Z,16.10
2019-05-14T10:47:31.460Z,16.20
2019-05-14T10:50:01.744Z,16.10
2019-05-14T10:52:32.106Z,15.80
2019-05-14T10:55:02.361Z,15.60
2019-05-14T10:57:32.658Z,15.50
2019-05-14T11:00:02.856Z,15.50
2019-05-14T11:02:33.132Z,15.70
2019-05-14T11:05:03.433Z,15.80
2019-05-14T11:07:33.724Z,15.90
2019-05-14T11:10:04.201Z,16.10
2019-05-14T11:12:34.478Z,16.20
2019-05-14T11:15:05.108Z,16.20
2019-05-14T11:17:35.365Z,16.20
2019-05-14T11:20:08.054Z,16.20
2019-05-14T11:22:38.178Z,16.00
2019-05-14T11:25:09.331Z,15.70
2019-05-14T11:27:39.818Z,15.60
2019-05-14T11:30:10.569Z,15.50
2019-05-14T11:32:40.883Z,15.50
2019-05-14T11:35:13.125Z,15.50
2019-05-14T11:37:43.457Z,15.30
2019-05-14T11:40:13.653Z,15.40
2019-05-14T11:42:43.951Z,15.60
2019-05-14T11:45:14.476Z,15.70
2019-05-14T11:47:44.752Z,15.70
2019-05-14T11:50:19.256Z,16.00
2019-05-14T11:52:49.199Z,16.00
2019-05-14T11:55:19.448Z,16.00
2019-05-14T11:57:49.700Z,15.80
2019-05-14T12:00:20.486Z,15.60
2019-05-14T12:02:50.784Z,15.40
2019-05-14T12:05:21.073Z,15.30
2019-05-14T12:07:51.378Z,15.20
2019-05-14T12:10:21.630Z,15.20
2019-05-14T12:12:51.921Z,15.40
2019-05-14T12:15:22.182Z,15.90
2019-05-14T12:17:52.458Z,16.00
2019-05-14T12:20:22.643Z,16.00
2019-05-14T12:22:52.915Z,15.90
2019-05-14T12:25:23.190Z,15.90
2019-05-14T12:27:53.497Z,16.00
2019-05-14T12:30:23.725Z,16.10
2019-05-14T12:32:54.025Z,16.10
2019-05-14T12:35:24.269Z,16.30
2019-05-14T12:37:54.548Z,16.30
2019-05-14T12:40:24.885Z,16.40
2019-05-14T12:42:55.111Z,16.30
2019-05-14T12:45:25.396Z,16.00
2019-05-14T12:47:58.312Z,15.70
2019-05-14T12:50:27.526Z,15.60
2019-05-14T12:52:58.884Z,15.70
2019-05-14T12:55:29.228Z,15.90
2019-05-14T12:57:59.884Z,16.10
2019-05-14T13:00:30.229Z,16.30
2019-05-14T13:03:00.857Z,16.40
2019-05-14T13:05:31.164Z,16.60
2019-05-14T13:08:01.504Z,16.60
2019-05-14T13:10:31.720Z,16.50
2019-05-14T13:13:01.985Z,16.20
2019-05-14T13:15:32.165Z,15.90
2019-05-14T13:18:02.521Z,15.70
2019-05-14T13:20:32.839Z,15.80
2019-05-14T13:23:03.109Z,16.10
2019-05-14T13:25:33.423Z,16.20
2019-05-14T13:28:03.602Z,16.20
2019-05-14T13:30:33.889Z,16.20
2019-05-14T13:33:04.147Z,16.20
2019-05-14T13:35:34.424Z,16.40
2019-05-14T13:38:04.772Z,16.50
2019-05-14T13:40:35.031Z,16.60
2019-05-14T13:43:05.204Z,16.70
2019-05-14T13:45:35.497Z,16.60
2019-05-14T13:48:08.198Z,16.70
2019-05-14T13:50:40.130Z,16.60
2019-05-14T13:53:12.711Z,16.40
2019-05-14T13:55:46.503Z,16.10
2019-05-14T13:58:13.402Z,16.00
2019-05-14T14:00:43.749Z,16.10
2019-05-14T14:03:14.046Z,16.20
2019-05-14T14:05:44.428Z,16.40
2019-05-14T14:08:14.726Z,16.60
2019-05-14T14:10:51.579Z,16.80
2019-05-14T14:13:19.507Z,16.80
2019-05-14T14:15:49.152Z,16.70
2019-05-14T14:18:20.933Z,16.50
2019-05-14T14:20:51.608Z,16.30
2019-05-14T14:23:26.969Z,16.30
2019-05-14T14:25:55.687Z,16.40
2019-05-14T14:28:25.851Z,16.40
2019-05-14T14:30:56.053Z,16.50
2019-05-14T14:33:28.729Z,16.70
2019-05-14T14:35:58.586Z,16.70
2019-05-14T14:38:29.517Z,16.60
2019-05-14T14:40:59.913Z,16.40
2019-05-14T14:43:30.139Z,16.10
2019-05-14T14:46:00.454Z,16.10
2019-05-14T14:48:30.763Z,16.10
2019-05-14T14:51:01.048Z,16.30
2019-05-14T14:53:47.411Z,16.40
2019-05-14T14:56:03.294Z,16.30
2019-05-14T14:58:33.592Z,16.50
2019-05-14T15:01:03.870Z,16.60
2019-05-14T15:03:34.071Z,16.70
2019-05-14T15:06:04.356Z,16.60
2019-05-14T15:08:34.641Z,16.50
2019-05-14T15:11:04.882Z,16.30
2019-05-14T15:13:35.141Z,16.10
2019-05-14T15:16:05.678Z,16.00
2019-05-14T15:18:38.569Z,15.80
2019-05-14T15:21:09.719Z,15.80
2019-05-14T15:23:45.194Z,16.10
2019-05-14T15:26:12.432Z,16.10
2019-05-14T15:28:42.614Z,15.90
2019-05-14T15:31:15.655Z,15.70
2019-05-14T15:33:50.424Z,15.60
2019-05-14T15:36:19.630Z,15.60
2019-05-14T15:38:49.863Z,15.70
2019-05-14T15:41:20.647Z,15.60
2019-05-14T15:43:50.929Z,15.50
2019-05-14T15:46:21.222Z,15.40
2019-05-14T15:48:51.434Z,15.40
2019-05-14T15:51:21.688Z,15.40
2019-05-14T15:54:11.246Z,15.50
2019-05-14T15:56:24.002Z,15.60
2019-05-14T15:58:54.432Z,15.50
2019-05-14T16:01:24.769Z,15.40
2019-05-14T16:03:55.089Z,15.30
2019-05-14T16:06:25.381Z,15.30
2019-05-14T16:08:55.669Z,15.20
2019-05-14T16:11:26.007Z,15.10
2019-05-14T16:13:56.305Z,15.00
2019-05-14T16:16:28.903Z,15.00
2019-05-14T16:18:59.368Z,15.00
2019-05-14T16:21:29.656Z,15.10
2019-05-14T16:24:00.053Z,15.20
2019-05-14T16:26:31.210Z,15.30
2019-05-14T16:29:01.589Z,15.40
2019-05-14T16:31:31.922Z,15.60
2019-05-14T16:34:02.302Z,15.70
2019-05-14T16:36:32.854Z,15.70
2019-05-14T16:39:03.728Z,15.50
2019-05-14T16:41:34.142Z,15.50
2019-05-14T16:44:04.978Z,15.40
2019-05-14T16:46:35.253Z,15.40
2019-05-14T16:49:05.568Z,15.10
2019-05-14T16:51:35.907Z,14.80
2019-05-14T16:54:06.119Z,14.80
2019-05-14T16:56:41.056Z,14.80
2019-05-14T16:59:09.585Z,14.70
2019-05-14T17:01:39.964Z,14.70
2019-05-14T17:04:10.282Z,14.70
2019-05-14T17:06:43.035Z,14.80
2019-05-14T17:09:13.385Z,14.90
2019-05-14T17:11:43.761Z,14.90
2019-05-14T17:14:14.178Z,14.80
2019-05-14T17:16:44.624Z,14.80
2019-05-14T17:19:15.743Z,14.90
2019-05-14T17:21:48.539Z,14.80
2019-05-14T17:24:21.029Z,14.90
2019-05-14T17:26:51.310Z,14.80
2019-05-14T17:29:21.581Z,14.90
2019-05-14T17:31:51.940Z,14.80
2019-05-14T17:34:22.242Z,14.80
2019-05-14T17:36:52.650Z,14.80
2019-05-14T17:39:23.095Z,14.90
2019-05-14T17:41:53.415Z,14.90
2019-05-14T17:44:26.742Z,14.90
2019-05-14T17:46:58.676Z,15.00
2019-05-14T17:49:29.333Z,15.00
2019-05-14T17:51:59.656Z,14.90
2019-05-14T17:54:29.937Z,14.80
2019-05-14T17:57:00.338Z,14.80
2019-05-14T17:59:33.469Z,14.80
2019-05-14T18:02:02.764Z,14.70
2019-05-14T18:04:33.123Z,14.60
2019-05-14T18:07:03.531Z,14.60
2019-05-14T18:09:33.867Z,14.60
2019-05-14T18:12:08.186Z,14.50
2019-05-14T18:14:38.759Z,14.50
2019-05-14T18:17:09.409Z,14.40
2019-05-14T18:19:39.814Z,14.30
2019-05-14T18:22:10.630Z,14.20
2019-05-14T18:24:40.984Z,14.10
2019-05-14T18:27:11.338Z,14.10
2019-05-14T18:29:41.823Z,14.10
2019-05-14T18:32:12.164Z,14.00
2019-05-14T18:34:42.671Z,14.10
2019-05-14T18:37:14.000Z,14.10
2019-05-14T18:39:44.497Z,14.00
2019-05-14T18:42:14.910Z,14.00
2019-05-14T18:44:49.619Z,14.00
2019-05-14T18:47:20.049Z,13.90
2019-05-14T18:49:50.589Z,13.90
2019-05-14T18:52:20.929Z,13.70
2019-05-14T18:54:51.264Z,13.70
2019-05-14T18:57:21.614Z,13.60
2019-05-14T18:59:54.004Z,13.60
2019-05-14T19:02:29.081Z,13.60
2019-05-14T19:05:02.183Z,13.70
2019-05-14T19:07:32.722Z,13.60
2019-05-14T19:10:03.102Z,13.60
2019-05-14T19:12:40.636Z,13.60
2019-05-14T19:15:13.970Z,13.60
2019-05-14T19:17:44.337Z,13.60
2019-05-14T19:20:15.007Z,13.70
2019-05-14T19:22:45.425Z,13.70
2019-05-14T19:25:15.968Z,13.60
2019-05-14T19:27:48.606Z,13.60
2019-05-14T19:30:19.183Z,13.50
2019-05-14T19:32:49.627Z,13.50
2019-05-14T19:35:20.106Z,13.50
2019-05-14T19:37:50.433Z,13.40
2019-05-14T19:40:20.815Z,13.40
2019-05-14T19:42:51.106Z,13.30
2019-05-14T19:45:21.391Z,13.40
2019-05-14T19:47:51.712Z,13.40
2019-05-14T19:50:22.003Z,13.30
2019-05-14T19:52:52.340Z,13.40
2019-05-14T19:55:22.852Z,13.30
2019-05-14T19:57:53.207Z,13.30
2019-05-14T20:00:28.912Z,13.30
2019-05-14T20:03:00.461Z,13.30
2019-05-14T20:05:31.085Z,13.20
2019-05-14T20:08:01.405Z,13.20
2019-05-14T20:10:31.736Z,13.00
2019-05-14T20:13:01.985Z,13.00
2019-05-14T20:15:32.327Z,13.00
2019-05-14T20:18:02.670Z,12.90
2019-05-14T20:20:33.102Z,12.90
2019-05-14T20:23:03.389Z,12.90
2019-05-14T20:25:33.744Z,12.90
2019-05-14T20:28:04.075Z,13.00
2019-05-14T20:30:34.445Z,13.00
2019-05-14T20:33:04.875Z,12.90
2019-05-14T20:35:35.247Z,13.00
2019-05-14T20:38:05.668Z,12.90
2019-05-14T20:40:38.014Z,12.90
2019-05-14T20:43:10.336Z,12.90
2019-05-14T20:45:40.200Z,12.90
2019-05-14T20:48:10.895Z,12.80
2019-05-14T20:50:41.342Z,12.70
2019-05-14T20:53:11.751Z,12.70
2019-05-14T20:55:42.069Z,12.70
2019-05-14T20:58:12.463Z,12.60
2019-05-14T21:00:42.874Z,12.60
2019-05-14T21:03:15.148Z,12.60
2019-05-14T21:05:45.428Z,12.60
2019-05-14T21:08:15.816Z,12.50
2019-05-14T21:10:46.495Z,12.50
2019-05-14T21:13:18.159Z,12.60
2019-05-14T21:15:48.669Z,12.50
2019-05-14T21:18:19.138Z,12.50
2019-05-14T21:20:52.818Z,12.50
2019-05-14T21:23:23.278Z,12.50
2019-05-14T21:25:53.729Z,12.50
2019-05-14T21:28:24.143Z,12.50
2019-05-14T21:30:54.449Z,12.40
2019-05-14T21:33:24.844Z,12.40
2019-05-14T21:35:55.081Z,12.40
2019-05-14T21:38:25.432Z,12.50
2019-05-14T21:40:58.156Z,12.40
2019-05-14T21:43:32.379Z,12.30
2019-05-14T21:46:02.774Z,12.20
2019-05-14T21:48:35.431Z,12.20
2019-05-14T21:51:05.095Z,12.20
2019-05-14T21:53:35.463Z,12.20
2019-05-14T21:56:05.817Z,12.20
2019-05-14T21:58:38.519Z,12.20
2019-05-14T22:01:10.620Z,12.10
2019-05-14T22:03:40.911Z,12.10
2019-05-14T22:06:11.206Z,12.10
2019-05-14T22:08:42.067Z,12.10
2019-05-14T22:11:12.444Z,12.10
2019-05-14T22:13:42.862Z,12.20
2019-05-14T22:16:13.084Z,12.10
2019-05-14T22:18:43.388Z,12.00
2019-05-14T22:21:13.618Z,12.00
2019-05-14T22:23:44.008Z,11.90
2019-05-14T22:26:14.217Z,12.00
2019-05-14T22:28:44.627Z,12.00
2019-05-14T22:31:17.116Z,11.90
2019-05-14T22:33:46.856Z,12.00
2019-05-14T22:36:20.908Z,11.90
2019-05-14T22:38:49.089Z,12.00
2019-05-14T22:41:19.428Z,11.90
2019-05-14T22:43:51.532Z,11.90
2019-05-14T22:46:21.901Z,11.90
2019-05-14T22:48:53.507Z,11.90
2019-05-14T22:51:23.853Z,11.80
2019-05-14T22:53:54.234Z,11.70
2019-05-14T22:56:24.540Z,11.90
2019-05-14T22:58:54.861Z,11.70
2019-05-14T23:01:25.126Z,11.70
2019-05-14T23:03:55.435Z,11.70
2019-05-14T23:06:28.041Z,11.70
2019-05-14T23:08:58.223Z,11.70
2019-05-14T23:11:28.988Z,11.70
2019-05-14T23:13:59.544Z,11.50
2019-05-14T23:16:37.516Z,11.50
2019-05-14T23:19:02.028Z,11.40
2019-05-14T23:21:32.419Z,11.40
2019-05-14T23:24:02.669Z,11.40
2019-05-14T23:26:32.944Z,11.30
2019-05-14T23:29:03.244Z,11.30
2019-05-14T23:31:33.639Z,11.10
2019-05-14T23:34:03.998Z,11.00
2019-05-14T23:36:34.697Z,11.10
2019-05-14T23:39:08.701Z,11.10
2019-05-14T23:41:38.965Z,11.10
2019-05-14T23:44:09.263Z,11.20
2019-05-14T23:46:39.541Z,11.00
2019-05-14T23:49:09.765Z,11.00
2019-05-14T23:51:39.975Z,10.90
2019-05-14T23:54:10.382Z,10.80
2019-05-14T23:56:40.739Z,10.80
2019-05-14T23:59:11.033Z,10.90
